Time;durP1;ratioP1;P1;durP2;ratioP2;P2;SDS_P1;SDS_P2;PMS_P1;PMS_P2;Temp;Humidity;BMP_temperature;BMP_pressure;BME280_temperature;BME280_humidity;BME280_pressure;Samples;Min_cycle;Max_cycle;Signal;HPM_P1;HPM_P2
2022/08/01 00:00:42;;;;;;;6.13;5.53;;;;;;;;;;5053810;28;20750;-55
2022/08/01 00:03:08;;;;;;;7.90;6.60;;;;;;;;;;5054020;28;20192;-54
2022/08/01 00:05:34;;;;;;;7.40;6.70;;;;;;;;;;5054564;28;20212;-55
2022/08/01 00:08:00;;;;;;;6.73;6.00;;;;;;;;;;5054521;28;20211;-55
2022/08/01 00:10:26;;;;;;;6.27;5.77;;;;;;;;;;5054596;28;20737;-56
2022/08/01 00:12:53;;;;;;;6.53;5.93;;;;;;;;;;5054285;28;20315;-55
2022/08/01 00:15:19;;;;;;;6.60;5.93;;;;;;;;;;5054386;28;20210;-54
2022/08/01 00:17:45;;;;;;;10.30;6.70;;;;;;;;;;5054279;28;20254;-54
2022/08/01 00:20:13;;;;;;;7.97;7.27;;;;;;;;;;5054471;28;20599;-55
2022/08/01 00:22:39;;;;;;;8.50;7.07;;;;;;;;;;5054170;28;20196;-54
2022/08/01 00:25:06;;;;;;;7.20;6.60;;;;;;;;;;5054350;28;20202;-54
2022/08/01 00:27:32;;;;;;;6.40;5.80;;;;;;;;;;5054016;28;20669;-55
2022/08/01 00:30:00;;;;;;;6.57;6.07;;;;;;;;;;5053834;28;20196;-55
2022/08/01 00:32:26;;;;;;;7.20;6.60;;;;;;;;;;5053938;28;20677;-55
2022/08/01 00:34:52;;;;;;;6.53;5.90;;;;;;;;;;5053887;28;20214;-53
2022/08/01 00:37:18;;;;;;;6.23;5.73;;;;;;;;;;5053953;28;20200;-53
2022/08/01 00:39:44;;;;;;;6.60;5.67;;;;;;;;;;5053981;28;20206;-53
2022/08/01 00:42:10;;;;;;;5.60;5.10;;;;;;;;;;5053872;28;20560;-53
2022/08/01 00:44:36;;;;;;;5.27;4.77;;;;;;;;;;5053471;28;20246;-54
2022/08/01 00:47:04;;;;;;;5.40;4.90;;;;;;;;;;5053909;28;20208;-52
2022/08/01 00:49:30;;;;;;;6.07;4.73;;;;;;;;;;5053690;28;20772;-52
2022/08/01 00:51:58;;;;;;;5.20;4.77;;;;;;;;;;5053646;28;20224;-52
2022/08/01 00:54:24;;;;;;;5.30;4.50;;;;;;;;;;5053745;28;20233;-52
2022/08/01 00:56:50;;;;;;;4.70;4.30;;;;;;;;;;5053597;28;20625;-52
2022/08/01 00:59:17;;;;;;;4.90;4.50;;;;;;;;;;5053650;28;20656;-52
2022/08/01 01:01:43;;;;;;;4.53;4.23;;;;;;;;;;5052957;28;20749;-52
2022/08/01 01:04:10;;;;;;;3.80;3.17;;;;;;;;;;5053394;28;20293;-52
2022/08/01 01:06:42;;;;;;;3.27;2.97;;;;;;;;;;5053047;28;20204;-52
2022/08/01 01:09:15;;;;;;;3.77;2.93;;;;;;;;;;5053221;28;20757;-52
2022/08/01 01:11:44;;;;;;;3.63;2.70;;;;;;;;;;5053189;28;20282;-51
2022/08/01 01:14:13;;;;;;;2.67;2.47;;;;;;;;;;5053245;28;20252;-51
2022/08/01 01:16:41;;;;;;;2.83;2.60;;;;;;;;;;5053244;28;20202;-51
2022/08/01 01:19:11;;;;;;;2.63;2.43;;;;;;;;;;5053273;28;20639;-51
2022/08/01 01:21:55;;;;;;;2.50;2.20;;;;;;;;;;5053177;28;20198;-52
2022/08/01 01:24:26;;;;;;;3.23;2.40;;;;;;;;;;5053282;28;20682;-52
2022/08/01 01:26:57;;;;;;;2.40;2.20;;;;;;;;;;5052916;28;20256;-55
2022/08/01 01:29:26;;;;;;;2.47;2.27;;;;;;;;;;5053127;28;20195;-52
2022/08/01 01:31:56;;;;;;;2.63;2.37;;;;;;;;;;5052906;28;20565;-53
2022/08/01 01:34:23;;;;;;;2.70;2.50;;;;;;;;;;5052980;28;20659;-53
2022/08/01 01:36:50;;;;;;;3.30;2.30;;;;;;;;;;5052758;28;20217;-53
2022/08/01 01:39:16;;;;;;;2.60;2.40;;;;;;;;;;5052899;28;20565;-53
2022/08/01 01:41:43;;;;;;;3.00;2.80;;;;;;;;;;5051270;28;20203;-53
2022/08/01 01:44:09;;;;;;;4.40;2.90;;;;;;;;;;5048930;28;20282;-53
2022/08/01 01:46:37;;;;;;;3.93;3.63;;;;;;;;;;5052652;28;20203;-54
2022/08/01 01:49:04;;;;;;;3.87;3.57;;;;;;;;;;5052811;28;20207;-54
2022/08/01 01:51:30;;;;;;;4.10;3.63;;;;;;;;;;5052685;28;20233;-54
2022/08/01 01:53:58;;;;;;;4.70;4.30;;;;;;;;;;5052484;28;20250;-54
2022/08/01 01:56:24;;;;;;;4.60;4.30;;;;;;;;;;5052629;28;20265;-54
2022/08/01 01:58:51;;;;;;;4.73;4.33;;;;;;;;;;5052414;28;20310;-54
2022/08/01 02:01:19;;;;;;;4.93;4.53;;;;;;;;;;5052612;28;20206;-54
2022/08/01 02:03:46;;;;;;;4.80;4.40;;;;;;;;;;5052387;28;20715;-54
2022/08/01 02:06:14;;;;;;;4.47;4.07;;;;;;;;;;5052437;28;20237;-54
2022/08/01 02:08:40;;;;;;;4.80;4.40;;;;;;;;;;5052311;28;20210;-53
2022/08/01 02:11:19;;;;;;;4.00;3.70;;;;;;;;;;5052278;28;20198;-53
2022/08/01 02:13:46;;;;;;;4.30;3.90;;;;;;;;;;5052229;28;20769;-52
2022/08/01 02:16:13;;;;;;;4.27;3.97;;;;;;;;;;5052338;28;20211;-52
2022/08/01 02:18:39;;;;;;;4.07;3.77;;;;;;;;;;5052162;28;20202;-51
2022/08/01 02:21:09;;;;;;;3.80;3.40;;;;;;;;;;5052222;28;20229;-51
2022/08/01 02:23:36;;;;;;;3.30;3.00;;;;;;;;;;5052150;28;20209;-51
2022/08/01 02:26:07;;;;;;;3.17;2.87;;;;;;;;;;5052134;28;20199;-51
2022/08/01 02:28:34;;;;;;;3.57;2.60;;;;;;;;;;5052058;28;20190;-52
2022/08/01 02:31:02;;;;;;;2.60;2.40;;;;;;;;;;5052174;28;20204;-52
2022/08/01 02:33:31;;;;;;;3.50;2.27;;;;;;;;;;5051998;28;20280;-53
2022/08/01 02:35:59;;;;;;;2.40;2.20;;;;;;;;;;5051936;28;20276;-52
2022/08/01 02:38:27;;;;;;;3.10;1.90;;;;;;;;;;5051995;28;20257;-53
2022/08/01 02:40:57;;;;;;;2.00;1.80;;;;;;;;;;5051912;28;20228;-53
2022/08/01 02:43:25;;;;;;;2.80;1.60;;;;;;;;;;5051543;28;20284;-53
2022/08/01 02:45:53;;;;;;;3.00;1.70;;;;;;;;;;5051495;28;20234;-53
2022/08/01 02:48:19;;;;;;;1.60;1.50;;;;;;;;;;5051941;28;20202;-53
2022/08/01 02:50:47;;;;;;;2.73;1.70;;;;;;;;;;5051877;28;20221;-53
2022/08/01 02:53:14;;;;;;;2.17;2.03;;;;;;;;;;5052117;28;20221;-54
2022/08/01 02:55:44;;;;;;;2.20;1.90;;;;;;;;;;5055803;28;20578;-54
2022/08/01 02:58:12;;;;;;;2.20;2.10;;;;;;;;;;5056080;28;20217;-54
2022/08/01 03:00:40;;;;;;;2.13;1.93;;;;;;;;;;5055703;28;20204;-55
2022/08/01 03:03:07;;;;;;;3.70;2.33;;;;;;;;;;5055872;28;20200;-55
2022/08/01 03:05:33;;;;;;;3.10;2.20;;;;;;;;;;5055838;28;20198;-54
2022/08/01 03:08:00;;;;;;;4.10;2.80;;;;;;;;;;5052029;28;20277;-54
2022/08/01 03:10:27;;;;;;;3.77;3.30;;;;;;;;;;5055386;28;20275;-54
2022/08/01 03:12:55;;;;;;;3.67;3.20;;;;;;;;;;5055147;28;20256;-55
2022/08/01 03:15:22;;;;;;;3.50;3.20;;;;;;;;;;5053606;28;20298;-55
2022/08/01 03:17:50;;;;;;;3.80;3.50;;;;;;;;;;5053548;28;20199;-55
2022/08/01 03:20:17;;;;;;;4.83;3.90;;;;;;;;;;5055529;28;20318;-55
2022/08/01 03:22:44;;;;;;;4.00;3.70;;;;;;;;;;5055222;28;20551;-55
2022/08/01 03:25:11;;;;;;;7.23;4.93;;;;;;;;;;5055365;28;20203;-55
2022/08/01 03:27:37;;;;;;;4.70;4.10;;;;;;;;;;5055323;28;20212;-55
2022/08/01 03:30:05;;;;;;;6.47;5.77;;;;;;;;;;5055430;28;20202;-55
2022/08/01 03:32:31;;;;;;;6.23;5.63;;;;;;;;;;5055034;28;20203;-55
2022/08/01 03:34:58;;;;;;;6.10;5.60;;;;;;;;;;5055110;28;20570;-55
2022/08/01 03:37:25;;;;;;;8.10;6.37;;;;;;;;;;5055202;28;20329;-55
2022/08/01 03:39:54;;;;;;;6.70;6.10;;;;;;;;;;5055089;28;20268;-55
2022/08/01 03:42:23;;;;;;;6.20;5.70;;;;;;;;;;5054967;28;20750;-55
2022/08/01 03:44:52;;;;;;;8.30;7.50;;;;;;;;;;5054829;28;20252;-55
2022/08/01 03:47:21;;;;;;;7.20;6.60;;;;;;;;;;5055020;28;20561;-55
2022/08/01 03:49:49;;;;;;;6.87;6.37;;;;;;;;;;5054958;28;20213;-55
2022/08/01 03:52:15;;;;;;;6.93;6.23;;;;;;;;;;5054992;28;20209;-55
2022/08/01 03:54:42;;;;;;;6.07;5.47;;;;;;;;;;5054700;28;20723;-55
2022/08/01 03:57:09;;;;;;;6.70;6.00;;;;;;;;;;5054885;28;20217;-55
2022/08/01 03:59:36;;;;;;;6.40;5.80;;;;;;;;;;5054772;28;20221;-55
2022/08/01 04:02:02;;;;;;;5.33;4.90;;;;;;;;;;5054608;28;20534;-55
2022/08/01 04:04:30;;;;;;;5.97;5.23;;;;;;;;;;5054215;28;20197;-55
2022/08/01 04:06:56;;;;;;;5.90;5.50;;;;;;;;;;5054474;28;20210;-55
2022/08/01 04:09:22;;;;;;;5.13;4.60;;;;;;;;;;5054589;28;20198;-55
2022/08/01 04:11:49;;;;;;;5.77;5.27;;;;;;;;;;5054463;28;20196;-55
2022/08/01 04:14:15;;;;;;;5.63;5.13;;;;;;;;;;5054450;28;20749;-55
2022/08/01 04:16:41;;;;;;;6.03;5.53;;;;;;;;;;5054005;28;20231;-55
2022/08/01 04:19:07;;;;;;;5.83;4.90;;;;;;;;;;5054356;28;20194;-55
2022/08/01 04:21:35;;;;;;;5.30;4.70;;;;;;;;;;5054251;28;20560;-55
2022/08/01 04:24:04;;;;;;;5.40;5.00;;;;;;;;;;5054269;28;20203;-55
2022/08/01 04:26:32;;;;;;;5.80;5.30;;;;;;;;;;5054384;28;20287;-55
2022/08/01 04:28:59;;;;;;;5.70;5.20;;;;;;;;;;5054204;28;20964;-55
2022/08/01 04:31:26;;;;;;;5.17;4.77;;;;;;;;;;5053773;28;20205;-55
2022/08/01 04:33:54;;;;;;;4.87;4.47;;;;;;;;;;5053604;28;20224;-55
2022/08/01 04:36:23;;;;;;;5.47;5.07;;;;;;;;;;5053729;28;20207;-55
2022/08/01 04:38:53;;;;;;;6.03;5.47;;;;;;;;;;5053962;28;20197;-55
2022/08/01 04:41:19;;;;;;;5.90;5.47;;;;;;;;;;5054099;28;20580;-55
2022/08/01 04:43:46;;;;;;;5.90;5.40;;;;;;;;;;5053367;28;20233;-55
2022/08/01 04:46:13;;;;;;;5.83;5.33;;;;;;;;;;5053627;28;20234;-55
2022/08/01 04:48:40;;;;;;;6.63;5.83;;;;;;;;;;5053391;28;20263;-56
2022/08/01 04:51:12;;;;;;;5.67;5.27;;;;;;;;;;5053462;28;20612;-56
2022/08/01 04:53:38;;;;;;;6.97;6.40;;;;;;;;;;5053782;28;20221;-56
2022/08/01 04:56:05;;;;;;;5.20;4.80;;;;;;;;;;5052949;28;20270;-56
2022/08/01 04:58:31;;;;;;;5.63;5.13;;;;;;;;;;5053248;28;20200;-56
2022/08/01 05:00:57;;;;;;;6.43;5.23;;;;;;;;;;5053265;28;20667;-56
2022/08/01 05:03:23;;;;;;;6.47;4.60;;;;;;;;;;5053598;28;20200;-56
2022/08/01 05:05:49;;;;;;;4.03;3.73;;;;;;;;;;5053431;28;20199;-56
2022/08/01 05:08:16;;;;;;;3.63;3.27;;;;;;;;;;5053627;28;20196;-56
2022/08/01 05:10:42;;;;;;;3.47;2.63;;;;;;;;;;5053449;28;20200;-58
2022/08/01 05:13:10;;;;;;;3.37;3.13;;;;;;;;;;5053322;28;20229;-56
2022/08/01 05:15:36;;;;;;;3.77;2.53;;;;;;;;;;5053016;28;20204;-56
2022/08/01 05:18:03;;;;;;;2.70;2.47;;;;;;;;;;5052566;28;20647;-56
2022/08/01 05:20:29;;;;;;;2.43;2.17;;;;;;;;;;5034971;28;20285;-56
2022/08/01 05:22:55;;;;;;;2.60;2.40;;;;;;;;;;5052864;28;20207;-56
2022/08/01 05:25:21;;;;;;;7.20;2.40;;;;;;;;;;5053171;28;20202;-56
2022/08/01 05:27:47;;;;;;;2.47;1.97;;;;;;;;;;5053077;28;20206;-56
2022/08/01 05:30:14;;;;;;;2.27;2.07;;;;;;;;;;5053119;28;20206;-56
2022/08/01 05:32:40;;;;;;;2.17;1.90;;;;;;;;;;5052632;28;20202;-56
2022/08/01 05:35:07;;;;;;;2.77;2.23;;;;;;;;;;5052969;28;20202;-56
2022/08/01 05:37:33;;;;;;;2.67;2.30;;;;;;;;;;5052713;28;20202;-53
2022/08/01 05:39:59;;;;;;;2.67;2.37;;;;;;;;;;5052866;28;20713;-53
2022/08/01 05:42:26;;;;;;;3.13;2.80;;;;;;;;;;5052774;28;20200;-53
2022/08/01 05:44:52;;;;;;;3.20;2.83;;;;;;;;;;5051951;28;20317;-53
2022/08/01 05:47:19;;;;;;;3.67;2.90;;;;;;;;;;5052511;28;20202;-54
2022/08/01 05:49:45;;;;;;;2.90;2.70;;;;;;;;;;5052432;28;20213;-53
2022/08/01 05:52:11;;;;;;;4.30;2.73;;;;;;;;;;5050681;28;20246;-53
2022/08/01 05:54:37;;;;;;;4.27;2.43;;;;;;;;;;5049916;28;20706;-54
2022/08/01 05:57:04;;;;;;;2.67;2.43;;;;;;;;;;5051760;28;20292;-53
2022/08/01 05:59:30;;;;;;;4.37;2.30;;;;;;;;;;5052386;28;20229;-53
2022/08/01 06:01:56;;;;;;;3.20;2.20;;;;;;;;;;5052359;28;20207;-54
2022/08/01 06:04:24;;;;;;;3.93;1.97;;;;;;;;;;5052093;28;20203;-52
2022/08/01 06:06:50;;;;;;;2.43;1.93;;;;;;;;;;5052098;28;20578;-53
2022/08/01 06:09:16;;;;;;;2.60;1.80;;;;;;;;;;5052244;28;20661;-53
2022/08/01 06:11:42;;;;;;;2.47;2.20;;;;;;;;;;5052128;28;20286;-53
2022/08/01 06:14:08;;;;;;;2.03;1.60;;;;;;;;;;5052014;28;20688;-54
2022/08/01 06:16:34;;;;;;;1.70;1.60;;;;;;;;;;5052157;28;20286;-54
2022/08/01 06:19:00;;;;;;;1.90;1.70;;;;;;;;;;5052038;28;21018;-54
2022/08/01 06:21:28;;;;;;;2.27;1.70;;;;;;;;;;5051972;28;20203;-51
2022/08/01 06:23:54;;;;;;;2.37;1.50;;;;;;;;;;5051932;28;20223;-52
2022/08/01 06:26:20;;;;;;;2.80;1.63;;;;;;;;;;5052003;28;20242;-52
2022/08/01 06:28:46;;;;;;;3.10;1.50;;;;;;;;;;5051819;28;20198;-52
2022/08/01 06:31:13;;;;;;;2.10;1.90;;;;;;;;;;5051974;28;20214;-53
2022/08/01 06:33:39;;;;;;;1.80;1.70;;;;;;;;;;5051794;28;20298;-53
2022/08/01 06:36:05;;;;;;;2.07;1.60;;;;;;;;;;5051892;28;20215;-53
2022/08/01 06:38:33;;;;;;;1.77;1.53;;;;;;;;;;5052163;28;20202;-53
2022/08/01 06:40:59;;;;;;;1.90;1.57;;;;;;;;;;5051968;28;20211;-53
2022/08/01 06:43:25;;;;;;;2.40;1.43;;;;;;;;;;5051720;28;20232;-53
2022/08/01 06:45:51;;;;;;;3.70;1.50;;;;;;;;;;5051797;28;20643;-53
2022/08/01 06:48:17;;;;;;;2.70;1.60;;;;;;;;;;5051927;28;20255;-53
2022/08/01 06:50:43;;;;;;;1.40;1.30;;;;;;;;;;5051846;28;20207;-53
2022/08/01 06:53:09;;;;;;;2.97;1.40;;;;;;;;;;5051706;28;20224;-53
2022/08/01 06:55:36;;;;;;;1.60;1.50;;;;;;;;;;5051774;28;20290;-53
2022/08/01 06:58:02;;;;;;;3.00;1.70;;;;;;;;;;5051603;28;20282;-53
2022/08/01 07:00:28;;;;;;;1.60;1.30;;;;;;;;;;5051487;28;20681;-53
2022/08/01 07:02:55;;;;;;;1.60;1.37;;;;;;;;;;5051387;28;20209;-54
2022/08/01 07:05:22;;;;;;;2.27;1.43;;;;;;;;;;5051545;28;20254;-53
2022/08/01 07:07:48;;;;;;;1.90;1.43;;;;;;;;;;5051537;28;20199;-53
2022/08/01 07:10:14;;;;;;;3.13;1.40;;;;;;;;;;5051789;28;20200;-53
2022/08/01 07:12:42;;;;;;;1.97;1.13;;;;;;;;;;5051582;28;20745;-53
2022/08/01 07:15:09;;;;;;;1.77;1.30;;;;;;;;;;5051582;28;20641;-53
2022/08/01 07:17:37;;;;;;;3.10;1.27;;;;;;;;;;5049343;28;20226;-53
2022/08/01 07:20:03;;;;;;;4.93;2.10;;;;;;;;;;5051318;28;20238;-53
2022/08/01 07:22:29;;;;;;;2.03;1.40;;;;;;;;;;5051195;28;20279;-53
2022/08/01 07:24:55;;;;;;;1.20;1.00;;;;;;;;;;5051279;28;20282;-53
2022/08/01 07:27:21;;;;;;;2.57;1.47;;;;;;;;;;5050980;28;20223;-53
2022/08/01 07:29:49;;;;;;;1.43;1.10;;;;;;;;;;5050859;28;20234;-53
2022/08/01 07:32:15;;;;;;;3.60;2.70;;;;;;;;;;5051304;28;20685;-53
2022/08/01 07:34:40;;;;;;;3.53;1.63;;;;;;;;;;5051171;28;20242;-53
2022/08/01 07:37:06;;;;;;;3.07;1.53;;;;;;;;;;5051115;28;20612;-53
2022/08/01 07:39:32;;;;;;;2.87;1.30;;;;;;;;;;5051969;28;20196;-53
2022/08/01 07:41:58;;;;;;;2.00;1.40;;;;;;;;;;5054783;28;20608;-54
2022/08/01 07:44:24;;;;;;;3.57;1.50;;;;;;;;;;5054805;28;20274;-53
2022/08/01 07:46:52;;;;;;;3.40;1.40;;;;;;;;;;5054739;28;20593;-53
2022/08/01 07:49:18;;;;;;;4.93;1.53;;;;;;;;;;5054782;28;20200;-53
2022/08/01 07:51:44;;;;;;;2.93;1.20;;;;;;;;;;5054687;28;20204;-53
2022/08/01 07:54:10;;;;;;;2.57;1.50;;;;;;;;;;5054797;28;20216;-55
2022/08/01 07:56:36;;;;;;;3.80;1.60;;;;;;;;;;5054683;28;20686;-55
2022/08/01 07:59:02;;;;;;;3.83;1.93;;;;;;;;;;5054605;28;20399;-56
2022/08/01 08:01:28;;;;;;;3.63;2.70;;;;;;;;;;5054745;28;20196;-56
2022/08/01 08:03:55;;;;;;;3.90;1.40;;;;;;;;;;5054536;28;20188;-56
2022/08/01 08:06:21;;;;;;;3.00;1.30;;;;;;;;;;5054467;28;20283;-56
2022/08/01 08:08:47;;;;;;;3.57;1.57;;;;;;;;;;5054514;28;20254;-56
2022/08/01 08:11:13;;;;;;;3.77;2.00;;;;;;;;;;5049694;28;20291;-56
2022/08/01 08:13:39;;;;;;;3.47;2.50;;;;;;;;;;5053882;28;20719;-56
2022/08/01 08:16:05;;;;;;;3.43;2.70;;;;;;;;;;5054068;28;20205;-56
2022/08/01 08:18:31;;;;;;;3.63;2.60;;;;;;;;;;5054418;28;20206;-56
2022/08/01 08:20:59;;;;;;;6.20;2.90;;;;;;;;;;5054086;28;20204;-56
2022/08/01 08:26:10;;;;;;;4.90;4.30;;;;;;;;;;5054090;28;20191;-56
2022/08/01 08:28:36;;;;;;;5.57;3.03;;;;;;;;;;5053777;28;20203;-56
2022/08/01 08:31:02;;;;;;;8.40;4.27;;;;;;;;;;5050121;28;20222;-56
2022/08/01 08:33:28;;;;;;;5.00;3.63;;;;;;;;;;5053622;28;20226;-56
2022/08/01 08:35:54;;;;;;;8.60;3.20;;;;;;;;;;5053286;28;20200;-56
2022/08/01 08:38:22;;;;;;;5.40;2.40;;;;;;;;;;5053528;28;20219;-56
2022/08/01 08:40:48;;;;;;;5.93;3.13;;;;;;;;;;5053749;28;20211;-57
2022/08/01 08:43:15;;;;;;;7.83;3.13;;;;;;;;;;5053245;28;20246;-64
2022/08/01 08:45:41;;;;;;;7.03;2.50;;;;;;;;;;5053606;28;20231;-56
2022/08/01 08:48:08;;;;;;;5.00;2.30;;;;;;;;;;5053193;28;20207;-56
2022/08/01 08:50:34;;;;;;;6.97;2.57;;;;;;;;;;5053749;28;20204;-55
2022/08/01 08:53:01;;;;;;;4.50;2.10;;;;;;;;;;5053567;28;20227;-56
2022/08/01 08:55:29;;;;;;;6.00;2.70;;;;;;;;;;5053667;28;20204;-56
2022/08/01 08:57:55;;;;;;;5.07;2.33;;;;;;;;;;5053394;28;20216;-56
2022/08/01 09:00:21;;;;;;;8.17;3.10;;;;;;;;;;5053514;28;20196;-56
2022/08/01 09:02:55;;;;;;;4.73;2.50;;;;;;;;;;5051564;28;20217;-56
2022/08/01 09:05:25;;;;;;;5.90;2.40;;;;;;;;;;5051346;28;20248;-56
2022/08/01 09:07:51;;;;;;;4.07;2.00;;;;;;;;;;5052971;28;20201;-56
2022/08/01 09:10:17;;;;;;;7.90;2.63;;;;;;;;;;5053105;28;20232;-57
2022/08/01 09:12:58;;;;;;;5.43;2.80;;;;;;;;;;5053461;28;20216;-56
2022/08/01 09:15:37;;;;;;;4.00;2.17;;;;;;;;;;5052828;28;20655;-56
2022/08/01 09:18:03;;;;;;;6.10;3.20;;;;;;;;;;5053276;28;20208;-56
2022/08/01 09:20:29;;;;;;;5.37;3.03;;;;;;;;;;5053268;28;20569;-56
2022/08/01 09:22:55;;;;;;;9.27;3.37;;;;;;;;;;5053084;28;20211;-56
2022/08/01 09:25:21;;;;;;;8.23;3.73;;;;;;;;;;5053252;28;20196;-54
2022/08/01 09:27:47;;;;;;;5.50;3.20;;;;;;;;;;5053092;28;20570;-55
2022/08/01 09:30:15;;;;;;;10.20;4.00;;;;;;;;;;5053171;28;20227;-55
2022/08/01 09:32:54;;;;;;;8.90;4.13;;;;;;;;;;5052775;28;20208;-55
2022/08/01 09:35:24;;;;;;;8.17;4.13;;;;;;;;;;5051039;28;20688;-55
2022/08/01 09:37:50;;;;;;;7.50;3.60;;;;;;;;;;5050884;28;20200;-55
2022/08/01 09:40:16;;;;;;;5.07;3.30;;;;;;;;;;5052684;28;20200;-55
2022/08/01 09:42:42;;;;;;;7.33;3.47;;;;;;;;;;5052515;28;20203;-55
2022/08/01 09:45:08;;;;;;;7.33;3.40;;;;;;;;;;5052141;28;20228;-55
2022/08/01 09:47:38;;;;;;;7.47;3.30;;;;;;;;;;5052353;28;20200;-55
2022/08/01 09:50:07;;;;;;;9.80;3.43;;;;;;;;;;5052268;28;20212;-55
2022/08/01 09:52:33;;;;;;;8.50;3.30;;;;;;;;;;5052339;28;20208;-55
2022/08/01 09:55:00;;;;;;;6.20;2.93;;;;;;;;;;5052149;28;20236;-55
2022/08/01 09:57:26;;;;;;;10.00;3.70;;;;;;;;;;5052228;28;20278;-55
2022/08/01 09:59:53;;;;;;;14.33;3.90;;;;;;;;;;5052079;28;20200;-55
2022/08/01 10:02:32;;;;;;;9.20;3.93;;;;;;;;;;5051690;28;20200;-55
2022/08/01 10:04:58;;;;;;;5.30;3.80;;;;;;;;;;5051990;28;20200;-55
2022/08/01 10:07:26;;;;;;;8.60;3.67;;;;;;;;;;5051975;28;20215;-55
2022/08/01 10:09:52;;;;;;;8.17;3.50;;;;;;;;;;5052253;28;20679;-55
2022/08/01 10:12:18;;;;;;;9.47;4.40;;;;;;;;;;5052380;28;20204;-55
2022/08/01 10:14:45;;;;;;;6.70;4.30;;;;;;;;;;5052134;28;20228;-55
2022/08/01 10:17:13;;;;;;;10.83;5.13;;;;;;;;;;5052355;28;20196;-55
2022/08/01 10:19:41;;;;;;;9.47;4.80;;;;;;;;;;5052174;28;20621;-54
2022/08/01 10:22:08;;;;;;;8.93;4.33;;;;;;;;;;5051780;28;20206;-54
2022/08/01 10:24:37;;;;;;;8.60;4.53;;;;;;;;;;5052138;28;20200;-55
2022/08/01 10:27:05;;;;;;;5.97;3.97;;;;;;;;;;5051993;28;20665;-55
2022/08/01 10:29:35;;;;;;;8.90;4.70;;;;;;;;;;5051911;28;20206;-55
2022/08/01 10:32:01;;;;;;;6.20;4.13;;;;;;;;;;5051967;28;20215;-55
2022/08/01 10:34:28;;;;;;;7.50;3.67;;;;;;;;;;5051658;28;20264;-55
2022/08/01 10:36:54;;;;;;;6.70;3.83;;;;;;;;;;5051915;28;20250;-57
2022/08/01 10:39:20;;;;;;;7.27;3.70;;;;;;;;;;5052045;28;20200;-57
2022/08/01 10:41:48;;;;;;;9.97;3.83;;;;;;;;;;5051880;28;20616;-55
2022/08/01 10:44:14;;;;;;;9.43;3.47;;;;;;;;;;5051515;28;20241;-56
2022/08/01 10:46:45;;;;;;;8.87;4.00;;;;;;;;;;5051903;28;20210;-56
2022/08/01 10:49:18;;;;;;;6.97;3.73;;;;;;;;;;5051744;28;20198;-56
2022/08/01 10:51:44;;;;;;;6.40;3.33;;;;;;;;;;5048659;28;20696;-55
2022/08/01 10:54:11;;;;;;;8.60;3.40;;;;;;;;;;5051364;28;20238;-55
2022/08/01 10:56:40;;;;;;;6.90;2.90;;;;;;;;;;5051482;28;20407;-56
2022/08/01 10:59:08;;;;;;;5.47;2.87;;;;;;;;;;5051534;28;20210;-56
2022/08/01 11:01:34;;;;;;;4.10;2.47;;;;;;;;;;5051659;28;20208;-55
2022/08/01 11:04:04;;;;;;;9.70;3.20;;;;;;;;;;5051492;28;20231;-55
2022/08/01 11:06:37;;;;;;;6.23;2.60;;;;;;;;;;5051386;28;20246;-56
2022/08/01 11:09:04;;;;;;;5.67;2.80;;;;;;;;;;5051349;28;20466;-56
2022/08/01 11:11:30;;;;;;;5.87;2.93;;;;;;;;;;5051442;28;20196;-56
2022/08/01 11:14:12;;;;;;;9.27;2.57;;;;;;;;;;5051100;28;20216;-57
2022/08/01 11:16:40;;;;;;;7.23;2.67;;;;;;;;;;5055248;28;20195;-56
2022/08/01 11:19:08;;;;;;;6.37;2.50;;;;;;;;;;5055070;28;20232;-56
2022/08/01 11:22:04;;;;;;;6.67;2.57;;;;;;;;;;5055177;28;20210;-55
2022/08/01 11:24:50;;;;;;;4.40;2.00;;;;;;;;;;4974211;28;20651;-55
2022/08/01 11:27:17;;;;;;;7.37;2.30;;;;;;;;;;5046979;28;20190;-56
2022/08/01 11:29:43;;;;;;;7.03;2.90;;;;;;;;;;5054933;28;20579;-56
2022/08/01 11:32:27;;;;;;;7.17;2.63;;;;;;;;;;5055006;28;20199;-55
2022/08/01 11:34:54;;;;;;;6.83;2.67;;;;;;;;;;5054617;28;20233;-56
2022/08/01 11:37:24;;;;;;;5.80;2.57;;;;;;;;;;5054889;28;20281;-56
2022/08/01 11:40:05;;;;;;;7.07;2.27;;;;;;;;;;5054718;28;20215;-55
2022/08/01 11:42:31;;;;;;;11.93;2.87;;;;;;;;;;5054017;28;20726;-55
2022/08/01 11:44:58;;;;;;;6.13;2.83;;;;;;;;;;5054394;28;20264;-55
2022/08/01 11:47:39;;;;;;;6.50;2.40;;;;;;;;;;5054374;28;20221;-55
2022/08/01 11:50:07;;;;;;;7.20;2.63;;;;;;;;;;5054062;28;20278;-55
2022/08/01 11:52:35;;;;;;;6.50;2.90;;;;;;;;;;5054820;28;20206;-55
2022/08/01 11:55:05;;;;;;;7.50;2.50;;;;;;;;;;5054469;28;20687;-56
2022/08/01 11:57:37;;;;;;;7.80;2.57;;;;;;;;;;5054674;28;20213;-56
2022/08/01 12:00:04;;;;;;;5.50;2.37;;;;;;;;;;5054381;28;20624;-56
2022/08/01 12:02:31;;;;;;;8.63;2.80;;;;;;;;;;5054490;28;20302;-56
2022/08/01 12:04:58;;;;;;;10.43;3.03;;;;;;;;;;5054196;28;20282;-56
2022/08/01 12:07:26;;;;;;;6.30;2.60;;;;;;;;;;5054385;28;20281;-56
2022/08/01 12:10:03;;;;;;;6.27;2.70;;;;;;;;;;5054190;28;20642;-56
2022/08/01 12:12:30;;;;;;;5.70;2.50;;;;;;;;;;5054384;28;20284;-56
2022/08/01 12:14:56;;;;;;;7.40;2.63;;;;;;;;;;5053979;28;20232;-56
2022/08/01 12:17:33;;;;;;;5.90;2.53;;;;;;;;;;5054054;28;20659;-56
2022/08/01 12:19:59;;;;;;;7.03;2.40;;;;;;;;;;5053974;28;20211;-56
2022/08/01 12:22:27;;;;;;;6.43;2.50;;;;;;;;;;5054057;28;20286;-55
2022/08/01 12:24:53;;;;;;;6.10;2.30;;;;;;;;;;5053825;28;20197;-55
2022/08/01 12:27:26;;;;;;;8.07;2.30;;;;;;;;;;5053510;28;20200;-55
2022/08/01 12:29:52;;;;;;;9.53;2.37;;;;;;;;;;5053627;28;20639;-55
2022/08/01 12:32:23;;;;;;;9.23;2.50;;;;;;;;;;5053815;28;20292;-55
2022/08/01 12:34:49;;;;;;;4.53;2.20;;;;;;;;;;5053431;28;20620;-56
2022/08/01 12:37:15;;;;;;;9.87;2.50;;;;;;;;;;5053759;28;20212;-55
2022/08/01 12:39:42;;;;;;;5.43;2.40;;;;;;;;;;5053614;28;20250;-56
2022/08/01 12:42:10;;;;;;;7.30;2.83;;;;;;;;;;5053543;28;20239;-55
2022/08/01 12:44:36;;;;;;;6.57;2.53;;;;;;;;;;5053303;28;20262;-55
2022/08/01 12:47:03;;;;;;;11.07;2.40;;;;;;;;;;5053537;28;20704;-56
2022/08/01 12:49:29;;;;;;;5.63;2.10;;;;;;;;;;5053585;28;20266;-55
2022/08/01 12:51:55;;;;;;;7.97;2.27;;;;;;;;;;5053389;28;20192;-55
2022/08/01 12:54:22;;;;;;;3.50;1.70;;;;;;;;;;5053254;28;20743;-55
2022/08/01 12:56:49;;;;;;;5.40;2.13;;;;;;;;;;5053361;28;20285;-55
2022/08/01 12:59:22;;;;;;;6.83;1.97;;;;;;;;;;5053492;28;20211;-56
2022/08/01 13:01:49;;;;;;;4.13;1.77;;;;;;;;;;5053151;28;20203;-55
2022/08/01 13:04:14;;;;;;;5.30;2.20;;;;;;;;;;5053356;28;20563;-56
2022/08/01 13:06:41;;;;;;;4.90;1.77;;;;;;;;;;5053273;28;20684;-55
2022/08/01 13:09:08;;;;;;;8.40;2.13;;;;;;;;;;5052964;28;20604;-56
2022/08/01 13:11:34;;;;;;;3.40;1.60;;;;;;;;;;5052888;28;20674;-55
2022/08/01 13:14:02;;;;;;;6.03;2.00;;;;;;;;;;5052923;28;20278;-56
2022/08/01 13:16:28;;;;;;;11.97;2.30;;;;;;;;;;5052896;28;20635;-55
2022/08/01 13:18:58;;;;;;;5.13;2.20;;;;;;;;;;5052777;28;20204;-55
2022/08/01 13:21:25;;;;;;;5.73;2.00;;;;;;;;;;5052942;28;20196;-55
2022/08/01 13:24:01;;;;;;;5.30;2.00;;;;;;;;;;5052743;28;20254;-55
2022/08/01 13:26:41;;;;;;;5.27;1.73;;;;;;;;;;5052837;28;20196;-55
2022/08/01 13:29:09;;;;;;;6.43;2.30;;;;;;;;;;5052607;28;20249;-55
2022/08/01 13:31:35;;;;;;;5.70;2.03;;;;;;;;;;5052629;28;20561;-55
2022/08/01 13:34:02;;;;;;;3.30;1.60;;;;;;;;;;5052343;28;20227;-56
2022/08/01 13:36:28;;;;;;;6.30;1.83;;;;;;;;;;5052377;28;20192;-55
2022/08/01 13:41:39;;;;;;;6.47;1.80;;;;;;;;;;5052528;28;20678;-55
2022/08/01 13:44:05;;;;;;;6.23;1.80;;;;;;;;;;5052286;28;20236;-55
2022/08/01 13:46:32;;;;;;;7.03;2.00;;;;;;;;;;5052428;28;20246;-55
2022/08/01 13:48:58;;;;;;;4.97;1.77;;;;;;;;;;5052015;28;20200;-56
2022/08/01 13:51:24;;;;;;;5.03;1.60;;;;;;;;;;5052264;28;20303;-55
2022/08/01 13:53:50;;;;;;;8.73;2.57;;;;;;;;;;5051979;28;20220;-55
2022/08/01 13:56:17;;;;;;;6.40;2.17;;;;;;;;;;5052411;28;20612;-55
2022/08/01 13:58:43;;;;;;;6.50;1.83;;;;;;;;;;5052344;28;20192;-55
2022/08/01 14:01:09;;;;;;;4.10;1.90;;;;;;;;;;5052008;28;20468;-55
2022/08/01 14:03:36;;;;;;;5.57;2.20;;;;;;;;;;5052086;28;20569;-55
2022/08/01 14:06:03;;;;;;;5.07;1.80;;;;;;;;;;5052111;28;20211;-55
2022/08/01 14:08:29;;;;;;;6.40;2.20;;;;;;;;;;5052097;28;20246;-55
2022/08/01 14:10:58;;;;;;;5.33;1.87;;;;;;;;;;5051785;28;20204;-55
2022/08/01 14:13:24;;;;;;;7.40;2.10;;;;;;;;;;5051779;28;20764;-55
2022/08/01 14:15:50;;;;;;;6.03;2.10;;;;;;;;;;5051761;28;20221;-55
2022/08/01 14:18:16;;;;;;;8.80;2.00;;;;;;;;;;5051923;28;20266;-55
2022/08/01 14:20:43;;;;;;;5.43;2.20;;;;;;;;;;5051678;28;20204;-55
2022/08/01 14:23:09;;;;;;;6.13;1.90;;;;;;;;;;5051616;28;20204;-55
2022/08/01 14:25:36;;;;;;;7.97;2.27;;;;;;;;;;5051617;28;20204;-55
2022/08/01 14:28:02;;;;;;;5.10;2.00;;;;;;;;;;5051569;28;20662;-55
2022/08/01 14:30:28;;;;;;;4.93;2.00;;;;;;;;;;5051767;28;20208;-55
2022/08/01 14:32:54;;;;;;;6.23;1.67;;;;;;;;;;5051589;28;20768;-55
2022/08/01 14:35:20;;;;;;;6.17;1.80;;;;;;;;;;5051510;28;20227;-55
2022/08/01 14:37:50;;;;;;;6.00;1.83;;;;;;;;;;5051688;28;20264;-55
2022/08/01 14:40:16;;;;;;;6.90;2.00;;;;;;;;;;5051617;28;20203;-55
2022/08/01 14:42:44;;;;;;;5.40;2.00;;;;;;;;;;5051603;28;20261;-55
2022/08/01 14:45:10;;;;;;;6.00;1.97;;;;;;;;;;5051269;28;20242;-55
2022/08/01 14:47:37;;;;;;;6.07;1.80;;;;;;;;;;5051378;28;20919;-56
2022/08/01 14:50:03;;;;;;;8.20;1.87;;;;;;;;;;5056963;28;20194;-56